sensor_id;sensor_type;location;lat;lon;timestamp;temperature;humidity
54622;DHT22;40521;53.146;6.556;2023-04-01T00:01:32;9.60;99.90
54622;DHT22;40521;53.146;6.556;2023-04-01T00:04:06;9.50;99.90
54622;DHT22;40521;53.146;6.556;2023-04-01T00:06:31;8.50;99.90
54622;DHT22;40521;53.146;6.556;2023-04-01T00:09:07;9.70;99.90
54622;DHT22;40521;53.146;6.556;2023-04-01T00:11:36;9.40;99.90
54622;DHT22;40521;53.146;6.556;2023-04-01T00:14:07;9.60;99.90
54622;DHT22;40521;53.146;6.556;2023-04-01T00:16:53;9.00;99.90
54622;DHT22;40521;53.146;6.556;2023-04-01T00:19:18;9.60;99.90
54622;DHT22;40521;53.146;6.556;2023-04-01T00:22:04;9.40;99.90
54622;DHT22;40521;53.146;6.556;2023-04-01T00:24:30;9.60;99.90
54622;DHT22;40521;53.146;6.556;2023-04-01T00:27:04;9.70;99.90
54622;DHT22;40521;53.146;6.556;2023-04-01T00:29:30;9.70;99.90
54622;DHT22;40521;53.146;6.556;2023-04-01T00:32:00;9.70;99.90
54622;DHT22;40521;53.146;6.556;2023-04-01T00:34:26;8.10;99.90
54622;DHT22;40521;53.146;6.556;2023-04-01T00:36:54;10.30;99.90
54622;DHT22;40521;53.146;6.556;2023-04-01T00:39:34;9.40;99.90
54622;DHT22;40521;53.146;6.556;2023-04-01T00:42:00;8.70;99.90
54622;DHT22;40521;53.146;6.556;2023-04-01T00:44:27;9.40;99.90
54622;DHT22;40521;53.146;6.556;2023-04-01T00:47:00;8.90;99.90
54622;DHT22;40521;53.146;6.556;2023-04-01T00:49:27;9.80;99.90
54622;DHT22;40521;53.146;6.556;2023-04-01T00:51:57;9.60;99.90
54622;DHT22;40521;53.146;6.556;2023-04-01T00:54:24;8.30;99.90
54622;DHT22;40521;53.146;6.556;2023-04-01T00:56:57;9.40;99.90
54622;DHT22;40521;53.146;6.556;2023-04-01T00:59:26;9.30;99.90
54622;DHT22;40521;53.146;6.556;2023-04-01T01:01:55;9.60;99.90
54622;DHT22;40521;53.146;6.556;2023-04-01T01:07:33;9.90;99.90
54622;DHT22;40521;53.146;6.556;2023-04-01T01:09:41;9.30;99.90
54622;DHT22;40521;53.146;6.556;2023-04-01T01:12:21;9.30;99.90
54622;DHT22;40521;53.146;6.556;2023-04-01T01:17:26;9.30;99.90
54622;DHT22;40521;53.146;6.556;2023-04-01T01:28:16;9.30;99.90
54622;DHT22;40521;53.146;6.556;2023-04-01T01:31:02;9.50;99.90
54622;DHT22;40521;53.146;6.556;2023-04-01T01:33:50;10.10;99.90
54622;DHT22;40521;53.146;6.556;2023-04-01T01:36:19;9.60;99.90
54622;DHT22;40521;53.146;6.556;2023-04-01T01:38:47;9.30;99.90
54622;DHT22;40521;53.146;6.556;2023-04-01T01:41:16;9.40;99.90
54622;DHT22;40521;53.146;6.556;2023-04-01T01:43:46;9.20;99.90
54622;DHT22;40521;53.146;6.556;2023-04-01T01:46:17;9.20;99.90
54622;DHT22;40521;53.146;6.556;2023-04-01T01:48:44;9.50;99.90
54622;DHT22;40521;53.146;6.556;2023-04-01T01:51:11;9.20;99.90
54622;DHT22;40521;53.146;6.556;2023-04-01T01:53:41;8.30;99.90
54622;DHT22;40521;53.146;6.556;2023-04-01T01:56:15;9.40;99.90
54622;DHT22;40521;53.146;6.556;2023-04-01T01:58:47;9.80;99.90
54622;DHT22;40521;53.146;6.556;2023-04-01T02:01:13;9.60;99.90
54622;DHT22;40521;53.146;6.556;2023-04-01T02:03:43;7.60;99.90
54622;DHT22;40521;53.146;6.556;2023-04-01T02:06:21;9.70;99.90
54622;DHT22;40521;53.146;6.556;2023-04-01T02:11:58;9.40;99.90
54622;DHT22;40521;53.146;6.556;2023-04-01T02:14:30;9.60;99.90
54622;DHT22;40521;53.146;6.556;2023-04-01T02:17:03;10.10;99.90
54622;DHT22;40521;53.146;6.556;2023-04-01T02:19:39;9.60;99.90
54622;DHT22;40521;53.146;6.556;2023-04-01T02:22:08;9.30;99.90
54622;DHT22;40521;53.146;6.556;2023-04-01T02:24:35;9.30;99.90
54622;DHT22;40521;53.146;6.556;2023-04-01T02:27:01;9.30;99.90
54622;DHT22;40521;53.146;6.556;2023-04-01T02:29:54;9.30;99.90
54622;DHT22;40521;53.146;6.556;2023-04-01T02:32:22;9.40;99.90
54622;DHT22;40521;53.146;6.556;2023-04-01T02:34:54;9.70;99.90
54622;DHT22;40521;53.146;6.556;2023-04-01T02:37:22;9.30;99.90
54622;DHT22;40521;53.146;6.556;2023-04-01T02:39:58;9.20;99.90
54622;DHT22;40521;53.146;6.556;2023-04-01T02:42:32;9.40;99.90
54622;DHT22;40521;53.146;6.556;2023-04-01T02:45:00;9.40;99.90
54622;DHT22;40521;53.146;6.556;2023-04-01T02:47:28;9.60;99.90
54622;DHT22;40521;53.146;6.556;2023-04-01T02:49:54;9.20;99.90
54622;DHT22;40521;53.146;6.556;2023-04-01T02:52:24;9.20;99.90
54622;DHT22;40521;53.146;6.556;2023-04-01T02:54:54;9.50;99.90
54622;DHT22;40521;53.146;6.556;2023-04-01T02:57:25;9.30;99.90
54622;DHT22;40521;53.146;6.556;2023-04-01T02:59:51;8.10;99.90
54622;DHT22;40521;53.146;6.556;2023-04-01T03:02:19;9.20;99.90
54622;DHT22;40521;53.146;6.556;2023-04-01T03:04:47;10.80;99.90
54622;DHT22;40521;53.146;6.556;2023-04-01T03:07:13;9.00;99.90
54622;DHT22;40521;53.146;6.556;2023-04-01T03:09:48;11.00;99.90
54622;DHT22;40521;53.146;6.556;2023-04-01T03:12:24;9.40;99.90
54622;DHT22;40521;53.146;6.556;2023-04-01T03:14:52;9.20;99.90
54622;DHT22;40521;53.146;6.556;2023-04-01T03:17:21;9.20;99.90
54622;DHT22;40521;53.146;6.556;2023-04-01T03:19:57;9.20;99.90
54622;DHT22;40521;53.146;6.556;2023-04-01T03:22:25;9.20;99.90
54622;DHT22;40521;53.146;6.556;2023-04-01T03:24:53;9.30;99.90
54622;DHT22;40521;53.146;6.556;2023-04-01T03:27:18;9.30;99.90
54622;DHT22;40521;53.146;6.556;2023-04-01T03:29:44;9.30;99.90
54622;DHT22;40521;53.146;6.556;2023-04-01T03:32:15;8.80;99.90
54622;DHT22;40521;53.146;6.556;2023-04-01T03:34:40;9.30;99.90
54622;DHT22;40521;53.146;6.556;2023-04-01T03:37:09;9.80;99.90
54622;DHT22;40521;53.146;6.556;2023-04-01T03:39:37;9.40;99.90
54622;DHT22;40521;53.146;6.556;2023-04-01T03:42:07;9.30;99.90
54622;DHT22;40521;53.146;6.556;2023-04-01T03:44:33;9.40;99.90
54622;DHT22;40521;53.146;6.556;2023-04-01T03:47:01;9.50;99.90
54622;DHT22;40521;53.146;6.556;2023-04-01T03:49:27;9.40;99.90
54622;DHT22;40521;53.146;6.556;2023-04-01T03:51:52;9.40;99.90
54622;DHT22;40521;53.146;6.556;2023-04-01T03:54:18;9.40;99.90
54622;DHT22;40521;53.146;6.556;2023-04-01T03:56:47;9.40;99.90
54622;DHT22;40521;53.146;6.556;2023-04-01T03:59:18;9.30;99.90
54622;DHT22;40521;53.146;6.556;2023-04-01T04:01:48;9.30;99.90
54622;DHT22;40521;53.146;6.556;2023-04-01T04:04:17;9.30;99.90
54622;DHT22;40521;53.146;6.556;2023-04-01T04:06:43;9.40;99.90
54622;DHT22;40521;53.146;6.556;2023-04-01T04:09:08;9.40;99.90
54622;DHT22;40521;53.146;6.556;2023-04-01T04:11:34;9.40;99.90
54622;DHT22;40521;53.146;6.556;2023-04-01T04:14:02;9.40;99.90
54622;DHT22;40521;53.146;6.556;2023-04-01T04:16:30;9.30;99.90
54622;DHT22;40521;53.146;6.556;2023-04-01T04:18:58;9.50;99.90
54622;DHT22;40521;53.146;6.556;2023-04-01T04:21:24;10.00;99.90
54622;DHT22;40521;53.146;6.556;2023-04-01T04:23:57;9.70;99.90
54622;DHT22;40521;53.146;6.556;2023-04-01T04:26:28;9.30;99.90
54622;DHT22;40521;53.146;6.556;2023-04-01T04:28:56;9.90;99.90
54622;DHT22;40521;53.146;6.556;2023-04-01T04:31:24;8.30;99.90
54622;DHT22;40521;53.146;6.556;2023-04-01T04:33:55;9.60;99.90
54622;DHT22;40521;53.146;6.556;2023-04-01T04:36:26;9.30;99.90
54622;DHT22;40521;53.146;6.556;2023-04-01T04:38:52;9.90;99.90
54622;DHT22;40521;53.146;6.556;2023-04-01T04:41:20;9.30;99.90
54622;DHT22;40521;53.146;6.556;2023-04-01T04:43:49;9.60;99.90
54622;DHT22;40521;53.146;6.556;2023-04-01T04:46:15;9.40;99.90
54622;DHT22;40521;53.146;6.556;2023-04-01T04:48:41;9.50;99.90
54622;DHT22;40521;53.146;6.556;2023-04-01T04:51:12;9.70;99.90
54622;DHT22;40521;53.146;6.556;2023-04-01T04:53:37;9.40;99.90
54622;DHT22;40521;53.146;6.556;2023-04-01T04:56:06;9.60;99.90
54622;DHT22;40521;53.146;6.556;2023-04-01T04:58:41;9.30;99.90
54622;DHT22;40521;53.146;6.556;2023-04-01T05:01:08;9.40;99.90
54622;DHT22;40521;53.146;6.556;2023-04-01T05:03:44;10.60;99.90
54622;DHT22;40521;53.146;6.556;2023-04-01T05:06:14;9.70;99.90
54622;DHT22;40521;53.146;6.556;2023-04-01T05:08:40;9.30;99.90
54622;DHT22;40521;53.146;6.556;2023-04-01T05:11:07;9.30;99.90
54622;DHT22;40521;53.146;6.556;2023-04-01T05:13:35;9.30;99.90
54622;DHT22;40521;53.146;6.556;2023-04-01T05:16:07;9.30;99.90
54622;DHT22;40521;53.146;6.556;2023-04-01T05:18:35;9.30;99.90
54622;DHT22;40521;53.146;6.556;2023-04-01T05:21:00;9.30;99.90
54622;DHT22;40521;53.146;6.556;2023-04-01T05:23:36;9.60;99.90
54622;DHT22;40521;53.146;6.556;2023-04-01T05:26:08;9.60;99.90
54622;DHT22;40521;53.146;6.556;2023-04-01T05:28:35;9.20;99.90
54622;DHT22;40521;53.146;6.556;2023-04-01T05:31:21;7.80;99.90
54622;DHT22;40521;53.146;6.556;2023-04-01T05:33:58;9.40;99.90
54622;DHT22;40521;53.146;6.556;2023-04-01T05:39:24;9.40;99.90
54622;DHT22;40521;53.146;6.556;2023-04-01T05:42:13;9.60;99.90
54622;DHT22;40521;53.146;6.556;2023-04-01T05:45:00;9.20;99.90
54622;DHT22;40521;53.146;6.556;2023-04-01T05:47:51;9.30;99.90
54622;DHT22;40521;53.146;6.556;2023-04-01T05:50:46;9.40;99.90
54622;DHT22;40521;53.146;6.556;2023-04-01T05:53:20;9.60;99.90
54622;DHT22;40521;53.146;6.556;2023-04-01T05:56:01;9.40;99.90
54622;DHT22;40521;53.146;6.556;2023-04-01T05:58:29;9.40;99.90
54622;DHT22;40521;53.146;6.556;2023-04-01T06:01:10;9.80;99.90
54622;DHT22;40521;53.146;6.556;2023-04-01T06:03:46;12.00;99.90
54622;DHT22;40521;53.146;6.556;2023-04-01T06:06:19;8.30;99.90
54622;DHT22;40521;53.146;6.556;2023-04-01T06:08:50;9.60;99.90
54622;DHT22;40521;53.146;6.556;2023-04-01T06:35:21;10.00;99.90
54622;DHT22;40521;53.146;6.556;2023-04-01T06:45:55;9.60;99.90
54622;DHT22;40521;53.146;6.556;2023-04-01T06:54:09;9.70;99.90
54622;DHT22;40521;53.146;6.556;2023-04-01T06:56:57;9.60;99.90
54622;DHT22;40521;53.146;6.556;2023-04-01T06:59:27;9.60;99.90
54622;DHT22;40521;53.146;6.556;2023-04-01T07:02:04;9.60;99.90
54622;DHT22;40521;53.146;6.556;2023-04-01T07:04:44;11.20;99.90
54622;DHT22;40521;53.146;6.556;2023-04-01T07:07:37;10.20;99.90
54622;DHT22;40521;53.146;6.556;2023-04-01T07:12:56;9.70;99.90
54622;DHT22;40521;53.146;6.556;2023-04-01T07:15:38;9.90;99.90
54622;DHT22;40521;53.146;6.556;2023-04-01T07:18:48;7.90;99.90
54622;DHT22;40521;53.146;6.556;2023-04-01T07:21:20;7.80;99.90
54622;DHT22;40521;53.146;6.556;2023-04-01T07:23:47;9.80;99.90
54622;DHT22;40521;53.146;6.556;2023-04-01T07:26:38;8.30;99.90
54622;DHT22;40521;53.146;6.556;2023-04-01T07:29:08;9.60;99.90
54622;DHT22;40521;53.146;6.556;2023-04-01T07:31:40;9.90;99.90
54622;DHT22;40521;53.146;6.556;2023-04-01T07:34:32;9.80;99.90
54622;DHT22;40521;53.146;6.556;2023-04-01T07:42:19;10.30;99.90
54622;DHT22;40521;53.146;6.556;2023-04-01T07:50:42;10.10;99.90
54622;DHT22;40521;53.146;6.556;2023-04-01T08:01:26;9.90;99.90
54622;DHT22;40521;53.146;6.556;2023-04-01T08:06:47;10.70;99.90
54622;DHT22;40521;53.146;6.556;2023-04-01T08:14:56;9.90;99.90
54622;DHT22;40521;53.146;6.556;2023-04-01T08:20:42;10.50;99.90
54622;DHT22;40521;53.146;6.556;2023-04-01T08:23:32;8.60;99.90
54622;DHT22;40521;53.146;6.556;2023-04-01T08:26:06;9.60;99.90
54622;DHT22;40521;53.146;6.556;2023-04-01T08:28:39;11.60;99.90
54622;DHT22;40521;53.146;6.556;2023-04-01T08:31:18;10.20;99.90
54622;DHT22;40521;53.146;6.556;2023-04-01T08:33:53;10.40;99.90
54622;DHT22;40521;53.146;6.556;2023-04-01T08:36:37;10.30;99.90
54622;DHT22;40521;53.146;6.556;2023-04-01T08:55:40;10.40;99.90
54622;DHT22;40521;53.146;6.556;2023-04-01T09:00:56;10.50;99.90
54622;DHT22;40521;53.146;6.556;2023-04-01T09:13:32;9.90;99.90
54622;DHT22;40521;53.146;6.556;2023-04-01T09:19:15;10.90;99.90
54622;DHT22;40521;53.146;6.556;2023-04-01T09:29:28;10.90;99.90
54622;DHT22;40521;53.146;6.556;2023-04-01T09:32:01;10.60;99.90
54622;DHT22;40521;53.146;6.556;2023-04-01T09:40:02;10.30;99.90
54622;DHT22;40521;53.146;6.556;2023-04-01T10:01:01;9.90;99.90
54622;DHT22;40521;53.146;6.556;2023-04-01T10:20:09;10.10;99.90
54622;DHT22;40521;53.146;6.556;2023-04-01T10:40:58;10.10;99.90
54622;DHT22;40521;53.146;6.556;2023-04-01T10:46:18;10.10;99.90
54622;DHT22;40521;53.146;6.556;2023-04-01T10:57:26;9.90;99.90
54622;DHT22;40521;53.146;6.556;2023-04-01T11:19:02;9.90;99.90
54622;DHT22;40521;53.146;6.556;2023-04-01T11:26:56;9.80;99.90
54622;DHT22;40521;53.146;6.556;2023-04-01T11:29:45;9.80;99.90
54622;DHT22;40521;53.146;6.556;2023-04-01T11:34:51;10.00;99.90
54622;DHT22;40521;53.146;6.556;2023-04-01T11:37:25;9.90;99.90
54622;DHT22;40521;53.146;6.556;2023-04-01T11:40:05;9.90;99.90
54622;DHT22;40521;53.146;6.556;2023-04-01T11:42:46;8.40;99.90
54622;DHT22;40521;53.146;6.556;2023-04-01T11:45:19;10.00;99.90
54622;DHT22;40521;53.146;6.556;2023-04-01T11:58:19;10.70;99.90
54622;DHT22;40521;53.146;6.556;2023-04-01T12:05:59;10.60;99.90
54622;DHT22;40521;53.146;6.556;2023-04-01T12:19:48;10.20;99.90
54622;DHT22;40521;53.146;6.556;2023-04-01T12:41:49;9.60;99.90
54622;DHT22;40521;53.146;6.556;2023-04-01T12:47:41;8.20;99.90
54622;DHT22;40521;53.146;6.556;2023-04-01T12:53:28;10.10;99.90
54622;DHT22;40521;53.146;6.556;2023-04-01T12:56:23;10.10;99.90
54622;DHT22;40521;53.146;6.556;2023-04-01T13:01:43;9.20;99.90
54622;DHT22;40521;53.146;6.556;2023-04-01T13:15:58;9.80;99.90
54622;DHT22;40521;53.146;6.556;2023-04-01T13:26:13;9.50;99.90
54622;DHT22;40521;53.146;6.556;2023-04-01T13:31:54;9.80;99.90
54622;DHT22;40521;53.146;6.556;2023-04-01T13:37:15;9.50;99.90
54622;DHT22;40521;53.146;6.556;2023-04-01T13:42:43;9.60;99.90
54622;DHT22;40521;53.146;6.556;2023-04-01T13:45:19;9.60;99.90
54622;DHT22;40521;53.146;6.556;2023-04-01T13:48:14;9.60;99.90
54622;DHT22;40521;53.146;6.556;2023-04-01T13:51:12;9.40;99.90
54622;DHT22;40521;53.146;6.556;2023-04-01T13:56:30;9.50;99.90
54622;DHT22;40521;53.146;6.556;2023-04-01T14:01:41;11.80;99.90
54622;DHT22;40521;53.146;6.556;2023-04-01T14:04:39;7.70;99.90
54622;DHT22;40521;53.146;6.556;2023-04-01T14:07:11;9.50;99.90
54622;DHT22;40521;53.146;6.556;2023-04-01T14:12:42;9.90;99.90
54622;DHT22;40521;53.146;6.556;2023-04-01T14:54:37;10.90;99.90
54622;DHT22;40521;53.146;6.556;2023-04-01T14:57:14;10.20;99.90
54622;DHT22;40521;53.146;6.556;2023-04-01T15:00:12;9.10;99.90
54622;DHT22;40521;53.146;6.556;2023-04-01T15:08:30;8.80;99.90
54622;DHT22;40521;53.146;6.556;2023-04-01T15:14:16;9.10;99.90
54622;DHT22;40521;53.146;6.556;2023-04-01T15:17:00;9.50;99.90
54622;DHT22;40521;53.146;6.556;2023-04-01T15:25:00;8.30;99.90
54622;DHT22;40521;53.146;6.556;2023-04-01T15:27:33;10.60;99.90
54622;DHT22;40521;53.146;6.556;2023-04-01T15:30:18;8.60;99.90
54622;DHT22;40521;53.146;6.556;2023-04-01T15:40:19;8.50;99.90
54622;DHT22;40521;53.146;6.556;2023-04-01T16:07:09;8.20;99.90
54622;DHT22;40521;53.146;6.556;2023-04-01T16:09:54;8.00;99.90
54622;DHT22;40521;53.146;6.556;2023-04-01T16:14:56;8.00;99.90
54622;DHT22;40521;53.146;6.556;2023-04-01T16:22:49;8.10;99.90
54622;DHT22;40521;53.146;6.556;2023-04-01T16:25:44;7.90;99.90
54622;DHT22;40521;53.146;6.556;2023-04-01T16:28:23;7.70;99.90
54622;DHT22;40521;53.146;6.556;2023-04-01T16:31:06;7.80;99.90
54622;DHT22;40521;53.146;6.556;2023-04-01T16:33:40;7.80;99.90
54622;DHT22;40521;53.146;6.556;2023-04-01T16:44:18;6.80;99.90
54622;DHT22;40521;53.146;6.556;2023-04-01T16:54:51;7.40;99.90
54622;DHT22;40521;53.146;6.556;2023-04-01T16:57:53;7.50;99.90
54622;DHT22;40521;53.146;6.556;2023-04-01T17:02:58;7.60;99.90
54622;DHT22;40521;53.146;6.556;2023-04-01T17:05:35;7.80;99.90
54622;DHT22;40521;53.146;6.556;2023-04-01T17:08:14;5.60;99.90
54622;DHT22;40521;53.146;6.556;2023-04-01T17:11:23;8.10;99.90
54622;DHT22;40521;53.146;6.556;2023-04-01T17:19:37;5.50;99.90
54622;DHT22;40521;53.146;6.556;2023-04-01T17:43:33;6.90;99.90
54622;DHT22;40521;53.146;6.556;2023-04-01T17:46:28;7.20;99.90
54622;DHT22;40521;53.146;6.556;2023-04-01T17:49:11;7.30;99.90
54622;DHT22;40521;53.146;6.556;2023-04-01T17:51:46;7.10;99.90
54622;DHT22;40521;53.146;6.556;2023-04-01T17:54:36;7.10;99.90
54622;DHT22;40521;53.146;6.556;2023-04-01T17:57:24;7.30;99.90
54622;DHT22;40521;53.146;6.556;2023-04-01T18:00:16;6.90;99.90
54622;DHT22;40521;53.146;6.556;2023-04-01T18:09:12;6.70;99.90
54622;DHT22;40521;53.146;6.556;2023-04-01T18:12:03;6.70;99.90
54622;DHT22;40521;53.146;6.556;2023-04-01T18:17:27;7.20;99.90
54622;DHT22;40521;53.146;6.556;2023-04-01T18:20:01;5.90;99.90
54622;DHT22;40521;53.146;6.556;2023-04-01T18:27:36;6.70;99.90
54622;DHT22;40521;53.146;6.556;2023-04-01T18:35:28;6.70;99.90
54622;DHT22;40521;53.146;6.556;2023-04-01T18:48:57;6.60;99.90
54622;DHT22;40521;53.146;6.556;2023-04-01T18:51:26;6.70;99.90
54622;DHT22;40521;53.146;6.556;2023-04-01T18:54:00;6.50;99.90
54622;DHT22;40521;53.146;6.556;2023-04-01T18:56:46;6.50;99.90
54622;DHT22;40521;53.146;6.556;2023-04-01T18:59:21;6.70;99.90
54622;DHT22;40521;53.146;6.556;2023-04-01T19:06:58;6.40;99.90
54622;DHT22;40521;53.146;6.556;2023-04-01T19:09:31;6.40;99.90
54622;DHT22;40521;53.146;6.556;2023-04-01T19:19:47;5.80;99.90
54622;DHT22;40521;53.146;6.556;2023-04-01T19:22:20;7.60;99.90
54622;DHT22;40521;53.146;6.556;2023-04-01T19:27:45;6.80;99.90
54622;DHT22;40521;53.146;6.556;2023-04-01T19:30:24;6.20;99.90
54622;DHT22;40521;53.146;6.556;2023-04-01T19:35:58;6.60;99.90
54622;DHT22;40521;53.146;6.556;2023-04-01T19:38:40;6.00;99.90
54622;DHT22;40521;53.146;6.556;2023-04-01T19:54:26;6.30;99.90
54622;DHT22;40521;53.146;6.556;2023-04-01T19:59:37;4.00;99.90
54622;DHT22;40521;53.146;6.556;2023-04-01T20:04:47;8.60;99.90
54622;DHT22;40521;53.146;6.556;2023-04-01T20:10:17;5.80;99.90
54622;DHT22;40521;53.146;6.556;2023-04-01T20:12:49;5.70;99.90
54622;DHT22;40521;53.146;6.556;2023-04-01T20:15:30;5.60;99.90
54622;DHT22;40521;53.146;6.556;2023-04-01T20:18:23;5.80;99.90
54622;DHT22;40521;53.146;6.556;2023-04-01T20:21:00;6.00;99.90
54622;DHT22;40521;53.146;6.556;2023-04-01T20:23:41;5.80;99.90
54622;DHT22;40521;53.146;6.556;2023-04-01T20:26:09;6.00;99.90
54622;DHT22;40521;53.146;6.556;2023-04-01T20:28:43;5.70;99.90
54622;DHT22;40521;53.146;6.556;2023-04-01T20:33:59;6.00;99.90
54622;DHT22;40521;53.146;6.556;2023-04-01T20:49:30;5.50;99.90
54622;DHT22;40521;53.146;6.556;2023-04-01T20:57:21;5.50;99.90
54622;DHT22;40521;53.146;6.556;2023-04-01T21:09:55;5.30;99.90
54622;DHT22;40521;53.146;6.556;2023-04-01T21:18:13;5.50;99.90
54622;DHT22;40521;53.146;6.556;2023-04-01T21:20:53;5.50;99.90
54622;DHT22;40521;53.146;6.556;2023-04-01T21:26:09;5.30;99.90
54622;DHT22;40521;53.146;6.556;2023-04-01T21:28:52;5.40;99.90
54622;DHT22;40521;53.146;6.556;2023-04-01T21:33:49;5.40;99.90
54622;DHT22;40521;53.146;6.556;2023-04-01T21:36:41;5.30;99.90
54622;DHT22;40521;53.146;6.556;2023-04-01T21:55:03;5.20;99.90
54622;DHT22;40521;53.146;6.556;2023-04-01T22:02:45;5.10;99.90
54622;DHT22;40521;53.146;6.556;2023-04-01T22:07:52;5.20;99.90
54622;DHT22;40521;53.146;6.556;2023-04-01T22:12:51;5.10;99.90
54622;DHT22;40521;53.146;6.556;2023-04-01T22:15:23;5.10;99.90
54622;DHT22;40521;53.146;6.556;2023-04-01T22:18:06;5.10;99.90
54622;DHT22;40521;53.146;6.556;2023-04-01T22:20:37;5.00;99.90
54622;DHT22;40521;53.146;6.556;2023-04-01T22:25:45;4.90;99.90
54622;DHT22;40521;53.146;6.556;2023-04-01T22:28:15;4.90;99.90
54622;DHT22;40521;53.146;6.556;2023-04-01T22:30:47;5.00;99.90
54622;DHT22;40521;53.146;6.556;2023-04-01T22:33:38;5.10;99.90
54622;DHT22;40521;53.146;6.556;2023-04-01T22:49:51;4.60;99.90
54622;DHT22;40521;53.146;6.556;2023-04-01T22:52:26;4.60;99.90
54622;DHT22;40521;53.146;6.556;2023-04-01T22:54:56;4.80;99.90
54622;DHT22;40521;53.146;6.556;2023-04-01T23:00:00;6.20;99.90
54622;DHT22;40521;53.146;6.556;2023-04-01T23:02:32;4.60;99.90
54622;DHT22;40521;53.146;6.556;2023-04-01T23:04:59;5.00;99.90
54622;DHT22;40521;53.146;6.556;2023-04-01T23:07:41;5.90;99.90
54622;DHT22;40521;53.146;6.556;2023-04-01T23:10:25;4.50;99.90
54622;DHT22;40521;53.146;6.556;2023-04-01T23:12:51;4.50;99.90
54622;DHT22;40521;53.146;6.556;2023-04-01T23:15:18;4.40;99.90
54622;DHT22;40521;53.146;6.556;2023-04-01T23:25:24;4.40;99.90
54622;DHT22;40521;53.146;6.556;2023-04-01T23:36:02;4.30;99.90
54622;DHT22;40521;53.146;6.556;2023-04-01T23:38:38;4.30;99.90
54622;DHT22;40521;53.146;6.556;2023-04-01T23:41:05;4.40;99.90
54622;DHT22;40521;53.146;6.556;2023-04-01T23:43:32;4.30;99.90
54622;DHT22;40521;53.146;6.556;2023-04-01T23:45:58;4.30;99.90
54622;DHT22;40521;53.146;6.556;2023-04-01T23:48:27;4.60;99.90
54622;DHT22;40521;53.146;6.556;2023-04-01T23:50:54;4.30;99.90
54622;DHT22;40521;53.146;6.556;2023-04-01T23:53:21;4.20;99.90
54622;DHT22;40521;53.146;6.556;2023-04-01T23:55:56;4.20;99.90
54622;DHT22;40521;53.146;6.556;2023-04-01T23:58:23;4.10;99.90
